sensor_id;sensor_type;location;lat;lon;timestamp;temperature;humidity
10802;DHT22;5453;50.852;7.102;2023-05-31T00:02:03;15.80;99.90
10802;DHT22;5453;50.852;7.102;2023-05-31T00:04:35;15.80;99.90
10802;DHT22;5453;50.852;7.102;2023-05-31T00:07:07;15.70;99.90
10802;DHT22;5453;50.852;7.102;2023-05-31T00:09:40;15.70;99.90
10802;DHT22;5453;50.852;7.102;2023-05-31T00:12:12;15.60;99.90
10802;DHT22;5453;50.852;7.102;2023-05-31T00:14:44;15.50;99.90
10802;DHT22;5453;50.852;7.102;2023-05-31T00:17:17;15.40;99.90
10802;DHT22;5453;50.852;7.102;2023-05-31T00:19:49;15.40;99.90
10802;DHT22;5453;50.852;7.102;2023-05-31T00:22:22;15.30;99.90
10802;DHT22;5453;50.852;7.102;2023-05-31T00:24:54;15.30;99.90
10802;DHT22;5453;50.852;7.102;2023-05-31T00:27:26;15.20;99.90
10802;DHT22;5453;50.852;7.102;2023-05-31T00:29:58;15.20;99.90
10802;DHT22;5453;50.852;7.102;2023-05-31T00:32:32;15.10;99.90
10802;DHT22;5453;50.852;7.102;2023-05-31T00:35:04;15.10;99.90
10802;DHT22;5453;50.852;7.102;2023-05-31T00:37:37;15.10;99.90
10802;DHT22;5453;50.852;7.102;2023-05-31T00:40:10;15.00;99.90
10802;DHT22;5453;50.852;7.102;2023-05-31T00:42:43;15.00;99.90
10802;DHT22;5453;50.852;7.102;2023-05-31T00:45:17;15.00;99.90
10802;DHT22;5453;50.852;7.102;2023-05-31T00:47:51;14.90;99.90
10802;DHT22;5453;50.852;7.102;2023-05-31T00:50:23;14.90;99.90
10802;DHT22;5453;50.852;7.102;2023-05-31T00:52:56;14.80;99.90
10802;DHT22;5453;50.852;7.102;2023-05-31T00:55:29;14.80;99.90
10802;DHT22;5453;50.852;7.102;2023-05-31T00:58:02;14.70;99.90
10802;DHT22;5453;50.852;7.102;2023-05-31T01:00:35;14.70;99.90
10802;DHT22;5453;50.852;7.102;2023-05-31T01:03:09;14.70;99.90
10802;DHT22;5453;50.852;7.102;2023-05-31T01:05:43;14.60;99.90
10802;DHT22;5453;50.852;7.102;2023-05-31T01:08:16;14.60;99.90
10802;DHT22;5453;50.852;7.102;2023-05-31T01:10:50;14.60;99.90
10802;DHT22;5453;50.852;7.102;2023-05-31T01:13:28;14.50;99.90
10802;DHT22;5453;50.852;7.102;2023-05-31T01:16:10;14.50;99.90
10802;DHT22;5453;50.852;7.102;2023-05-31T01:18:48;14.40;99.90
10802;DHT22;5453;50.852;7.102;2023-05-31T01:21:32;14.40;99.90
10802;DHT22;5453;50.852;7.102;2023-05-31T01:24:21;14.40;99.90
10802;DHT22;5453;50.852;7.102;2023-05-31T01:27:01;14.40;99.90
10802;DHT22;5453;50.852;7.102;2023-05-31T01:29:34;14.30;99.90
10802;DHT22;5453;50.852;7.102;2023-05-31T01:32:07;14.30;99.90
10802;DHT22;5453;50.852;7.102;2023-05-31T01:34:44;14.20;99.90
10802;DHT22;5453;50.852;7.102;2023-05-31T01:37:17;14.20;99.90
10802;DHT22;5453;50.852;7.102;2023-05-31T01:39:49;14.20;99.90
10802;DHT22;5453;50.852;7.102;2023-05-31T01:42:24;14.10;99.90
10802;DHT22;5453;50.852;7.102;2023-05-31T01:44:57;14.10;99.90
10802;DHT22;5453;50.852;7.102;2023-05-31T01:47:31;14.00;99.90
10802;DHT22;5453;50.852;7.102;2023-05-31T01:50:05;14.00;99.90
10802;DHT22;5453;50.852;7.102;2023-05-31T01:52:37;13.90;99.90
10802;DHT22;5453;50.852;7.102;2023-05-31T01:55:09;13.90;99.90
10802;DHT22;5453;50.852;7.102;2023-05-31T01:57:46;13.90;99.90
10802;DHT22;5453;50.852;7.102;2023-05-31T02:00:19;13.80;99.90
10802;DHT22;5453;50.852;7.102;2023-05-31T02:02:53;13.80;99.90
10802;DHT22;5453;50.852;7.102;2023-05-31T02:05:26;13.80;99.90
10802;DHT22;5453;50.852;7.102;2023-05-31T02:07:59;13.80;99.90
10802;DHT22;5453;50.852;7.102;2023-05-31T02:10:31;13.80;99.90
10802;DHT22;5453;50.852;7.102;2023-05-31T02:13:05;13.70;99.90
10802;DHT22;5453;50.852;7.102;2023-05-31T02:15:37;13.70;99.90
10802;DHT22;5453;50.852;7.102;2023-05-31T02:18:12;13.70;99.90
10802;DHT22;5453;50.852;7.102;2023-05-31T02:20:49;13.60;99.90
10802;DHT22;5453;50.852;7.102;2023-05-31T02:23:23;13.60;99.90
10802;DHT22;5453;50.852;7.102;2023-05-31T02:25:55;13.60;99.90
10802;DHT22;5453;50.852;7.102;2023-05-31T02:28:30;13.60;99.90
10802;DHT22;5453;50.852;7.102;2023-05-31T02:31:02;13.50;99.90
10802;DHT22;5453;50.852;7.102;2023-05-31T02:33:34;13.50;99.90
10802;DHT22;5453;50.852;7.102;2023-05-31T02:36:07;13.50;99.90
10802;DHT22;5453;50.852;7.102;2023-05-31T02:38:41;13.40;99.90
10802;DHT22;5453;50.852;7.102;2023-05-31T02:41:16;13.40;99.90
10802;DHT22;5453;50.852;7.102;2023-05-31T02:43:50;13.40;99.90
10802;DHT22;5453;50.852;7.102;2023-05-31T02:46:22;13.40;99.90
10802;DHT22;5453;50.852;7.102;2023-05-31T02:48:54;13.30;99.90
10802;DHT22;5453;50.852;7.102;2023-05-31T02:51:26;13.30;99.90
10802;DHT22;5453;50.852;7.102;2023-05-31T02:54:04;13.30;99.90
10802;DHT22;5453;50.852;7.102;2023-05-31T02:56:39;13.30;99.90
10802;DHT22;5453;50.852;7.102;2023-05-31T02:59:32;13.30;99.90
10802;DHT22;5453;50.852;7.102;2023-05-31T03:02:08;13.20;99.90
10802;DHT22;5453;50.852;7.102;2023-05-31T03:04:52;13.20;99.90
10802;DHT22;5453;50.852;7.102;2023-05-31T03:07:26;13.20;99.90
10802;DHT22;5453;50.852;7.102;2023-05-31T03:09:58;13.20;99.90
10802;DHT22;5453;50.852;7.102;2023-05-31T03:12:30;13.10;99.90
10802;DHT22;5453;50.852;7.102;2023-05-31T03:15:05;13.10;99.90
10802;DHT22;5453;50.852;7.102;2023-05-31T03:17:39;13.10;99.90
10802;DHT22;5453;50.852;7.102;2023-05-31T03:20:12;13.10;99.90
10802;DHT22;5453;50.852;7.102;2023-05-31T03:22:45;13.00;99.90
10802;DHT22;5453;50.852;7.102;2023-05-31T03:25:17;13.00;99.90
10802;DHT22;5453;50.852;7.102;2023-05-31T03:27:49;13.00;99.90
10802;DHT22;5453;50.852;7.102;2023-05-31T03:30:23;13.00;99.90
10802;DHT22;5453;50.852;7.102;2023-05-31T03:33:01;13.00;99.90
10802;DHT22;5453;50.852;7.102;2023-05-31T03:35:34;13.00;99.90
10802;DHT22;5453;50.852;7.102;2023-05-31T03:38:08;12.90;99.90
10802;DHT22;5453;50.852;7.102;2023-05-31T03:40:41;13.00;99.90
10802;DHT22;5453;50.852;7.102;2023-05-31T03:43:13;13.00;99.90
10802;DHT22;5453;50.852;7.102;2023-05-31T03:45:48;12.90;99.90
10802;DHT22;5453;50.852;7.102;2023-05-31T03:48:20;12.90;99.90
10802;DHT22;5453;50.852;7.102;2023-05-31T03:50:52;13.00;99.90
10802;DHT22;5453;50.852;7.102;2023-05-31T03:53:24;12.90;99.90
10802;DHT22;5453;50.852;7.102;2023-05-31T03:55:56;12.90;99.90
10802;DHT22;5453;50.852;7.102;2023-05-31T03:58:28;12.90;99.90
10802;DHT22;5453;50.852;7.102;2023-05-31T04:01:02;12.90;99.90
10802;DHT22;5453;50.852;7.102;2023-05-31T04:03:35;12.90;99.90
10802;DHT22;5453;50.852;7.102;2023-05-31T04:06:09;12.90;99.90
10802;DHT22;5453;50.852;7.102;2023-05-31T04:08:41;12.90;99.90
10802;DHT22;5453;50.852;7.102;2023-05-31T04:11:13;13.00;99.90
10802;DHT22;5453;50.852;7.102;2023-05-31T04:13:46;12.90;99.90
10802;DHT22;5453;50.852;7.102;2023-05-31T04:16:20;13.00;99.90
10802;DHT22;5453;50.852;7.102;2023-05-31T04:18:53;13.00;99.90
10802;DHT22;5453;50.852;7.102;2023-05-31T04:21:26;13.00;99.90
10802;DHT22;5453;50.852;7.102;2023-05-31T04:23:59;13.10;99.90
10802;DHT22;5453;50.852;7.102;2023-05-31T04:26:32;13.10;99.90
10802;DHT22;5453;50.852;7.102;2023-05-31T04:29:07;13.20;99.90
10802;DHT22;5453;50.852;7.102;2023-05-31T04:31:41;13.30;99.90
10802;DHT22;5453;50.852;7.102;2023-05-31T04:34:15;13.20;99.90
10802;DHT22;5453;50.852;7.102;2023-05-31T04:36:51;13.30;99.90
10802;DHT22;5453;50.852;7.102;2023-05-31T04:39:27;13.40;99.90
10802;DHT22;5453;50.852;7.102;2023-05-31T04:42:03;13.40;99.90
10802;DHT22;5453;50.852;7.102;2023-05-31T04:44:36;13.50;99.90
10802;DHT22;5453;50.852;7.102;2023-05-31T04:47:13;13.60;99.90
10802;DHT22;5453;50.852;7.102;2023-05-31T04:49:46;13.60;99.90
10802;DHT22;5453;50.852;7.102;2023-05-31T04:52:21;13.80;99.90
10802;DHT22;5453;50.852;7.102;2023-05-31T04:54:53;14.10;99.90
10802;DHT22;5453;50.852;7.102;2023-05-31T04:57:28;14.40;99.90
10802;DHT22;5453;50.852;7.102;2023-05-31T05:00:01;14.70;99.90
10802;DHT22;5453;50.852;7.102;2023-05-31T05:02:40;15.10;99.90
10802;DHT22;5453;50.852;7.102;2023-05-31T05:05:12;15.40;99.90
10802;DHT22;5453;50.852;7.102;2023-05-31T05:07:47;15.80;99.90
10802;DHT22;5453;50.852;7.102;2023-05-31T05:10:19;16.10;99.90
10802;DHT22;5453;50.852;7.102;2023-05-31T05:12:52;16.50;99.90
10802;DHT22;5453;50.852;7.102;2023-05-31T05:15:25;16.80;99.90
10802;DHT22;5453;50.852;7.102;2023-05-31T05:17:59;17.00;99.90
10802;DHT22;5453;50.852;7.102;2023-05-31T05:20:32;17.20;99.90
10802;DHT22;5453;50.852;7.102;2023-05-31T05:23:06;17.40;99.90
10802;DHT22;5453;50.852;7.102;2023-05-31T05:25:39;17.60;99.90
10802;DHT22;5453;50.852;7.102;2023-05-31T05:28:14;17.80;99.90
10802;DHT22;5453;50.852;7.102;2023-05-31T05:30:46;17.90;99.90
10802;DHT22;5453;50.852;7.102;2023-05-31T05:33:20;18.10;99.90
10802;DHT22;5453;50.852;7.102;2023-05-31T05:35:53;18.40;99.90
10802;DHT22;5453;50.852;7.102;2023-05-31T05:38:26;18.60;99.90
10802;DHT22;5453;50.852;7.102;2023-05-31T05:40:58;18.80;99.90
10802;DHT22;5453;50.852;7.102;2023-05-31T05:43:31;19.00;99.80
10802;DHT22;5453;50.852;7.102;2023-05-31T05:46:15;19.30;99.20
10802;DHT22;5453;50.852;7.102;2023-05-31T05:48:50;19.50;98.10
10802;DHT22;5453;50.852;7.102;2023-05-31T05:51:26;19.70;97.60
10802;DHT22;5453;50.852;7.102;2023-05-31T05:54:02;20.00;97.20
10802;DHT22;5453;50.852;7.102;2023-05-31T05:56:36;20.10;96.10
10802;DHT22;5453;50.852;7.102;2023-05-31T05:59:12;20.30;95.30
10802;DHT22;5453;50.852;7.102;2023-05-31T06:02:03;20.40;95.00
10802;DHT22;5453;50.852;7.102;2023-05-31T06:04:38;20.70;94.80
10802;DHT22;5453;50.852;7.102;2023-05-31T06:07:12;20.80;94.10
10802;DHT22;5453;50.852;7.102;2023-05-31T06:09:45;20.90;93.90
10802;DHT22;5453;50.852;7.102;2023-05-31T06:12:18;20.90;93.40
10802;DHT22;5453;50.852;7.102;2023-05-31T06:14:50;21.00;93.40
10802;DHT22;5453;50.852;7.102;2023-05-31T06:17:23;21.10;93.20
10802;DHT22;5453;50.852;7.102;2023-05-31T06:19:57;21.10;92.50
10802;DHT22;5453;50.852;7.102;2023-05-31T06:22:31;21.30;92.60
10802;DHT22;5453;50.852;7.102;2023-05-31T06:25:05;21.40;92.10
10802;DHT22;5453;50.852;7.102;2023-05-31T06:27:38;21.50;91.70
10802;DHT22;5453;50.852;7.102;2023-05-31T06:30:13;21.70;91.60
10802;DHT22;5453;50.852;7.102;2023-05-31T06:32:51;21.80;91.40
10802;DHT22;5453;50.852;7.102;2023-05-31T06:35:29;21.90;91.00
10802;DHT22;5453;50.852;7.102;2023-05-31T06:38:02;21.80;90.50
10802;DHT22;5453;50.852;7.102;2023-05-31T06:40:34;21.70;90.30
10802;DHT22;5453;50.852;7.102;2023-05-31T06:43:08;21.50;90.30
10802;DHT22;5453;50.852;7.102;2023-05-31T06:46:00;21.30;90.40
10802;DHT22;5453;50.852;7.102;2023-05-31T06:49:05;21.30;90.90
10802;DHT22;5453;50.852;7.102;2023-05-31T06:52:15;21.20;91.60
10802;DHT22;5453;50.852;7.102;2023-05-31T06:55:13;21.10;92.00
10802;DHT22;5453;50.852;7.102;2023-05-31T06:57:47;21.10;92.10
10802;DHT22;5453;50.852;7.102;2023-05-31T07:00:19;21.20;92.00
10802;DHT22;5453;50.852;7.102;2023-05-31T07:02:52;21.20;92.00
10802;DHT22;5453;50.852;7.102;2023-05-31T07:05:24;21.30;91.80
10802;DHT22;5453;50.852;7.102;2023-05-31T07:07:59;21.30;91.80
10802;DHT22;5453;50.852;7.102;2023-05-31T07:10:32;21.40;91.50
10802;DHT22;5453;50.852;7.102;2023-05-31T07:13:06;21.60;91.40
10802;DHT22;5453;50.852;7.102;2023-05-31T07:15:39;21.70;91.00
10802;DHT22;5453;50.852;7.102;2023-05-31T07:18:11;21.80;90.80
10802;DHT22;5453;50.852;7.102;2023-05-31T07:20:46;21.90;90.70
10802;DHT22;5453;50.852;7.102;2023-05-31T07:23:19;22.10;90.50
10802;DHT22;5453;50.852;7.102;2023-05-31T07:25:51;22.20;90.20
10802;DHT22;5453;50.852;7.102;2023-05-31T07:28:25;22.20;89.30
10802;DHT22;5453;50.852;7.102;2023-05-31T07:30:57;22.30;88.30
10802;DHT22;5453;50.852;7.102;2023-05-31T07:33:30;22.40;88.70
10802;DHT22;5453;50.852;7.102;2023-05-31T07:36:03;22.50;87.90
10802;DHT22;5453;50.852;7.102;2023-05-31T07:38:38;22.60;87.00
10802;DHT22;5453;50.852;7.102;2023-05-31T07:41:11;22.70;87.30
10802;DHT22;5453;50.852;7.102;2023-05-31T07:43:46;22.90;87.50
10802;DHT22;5453;50.852;7.102;2023-05-31T07:46:18;23.00;87.50
10802;DHT22;5453;50.852;7.102;2023-05-31T07:48:51;23.10;86.50
10802;DHT22;5453;50.852;7.102;2023-05-31T07:51:24;23.20;86.80
10802;DHT22;5453;50.852;7.102;2023-05-31T07:53:58;23.40;84.60
10802;DHT22;5453;50.852;7.102;2023-05-31T07:56:31;23.60;83.30
10802;DHT22;5453;50.852;7.102;2023-05-31T07:59:03;23.80;81.10
10802;DHT22;5453;50.852;7.102;2023-05-31T08:01:37;24.00;78.90
10802;DHT22;5453;50.852;7.102;2023-05-31T08:04:11;24.20;77.70
10802;DHT22;5453;50.852;7.102;2023-05-31T08:06:45;24.50;76.80
10802;DHT22;5453;50.852;7.102;2023-05-31T08:09:18;24.80;75.30
10802;DHT22;5453;50.852;7.102;2023-05-31T08:11:52;25.10;75.50
10802;DHT22;5453;50.852;7.102;2023-05-31T08:14:24;25.50;75.30
10802;DHT22;5453;50.852;7.102;2023-05-31T08:16:56;25.80;73.50
10802;DHT22;5453;50.852;7.102;2023-05-31T08:19:29;26.10;73.90
10802;DHT22;5453;50.852;7.102;2023-05-31T08:22:02;26.40;73.40
10802;DHT22;5453;50.852;7.102;2023-05-31T08:24:36;26.80;70.10
10802;DHT22;5453;50.852;7.102;2023-05-31T08:27:09;27.20;68.70
10802;DHT22;5453;50.852;7.102;2023-05-31T08:29:42;27.60;66.80
10802;DHT22;5453;50.852;7.102;2023-05-31T08:32:14;28.00;65.00
10802;DHT22;5453;50.852;7.102;2023-05-31T08:34:46;28.50;61.80
10802;DHT22;5453;50.852;7.102;2023-05-31T08:37:19;29.10;59.00
10802;DHT22;5453;50.852;7.102;2023-05-31T08:39:53;29.90;56.30
10802;DHT22;5453;50.852;7.102;2023-05-31T08:42:29;30.80;54.90
10802;DHT22;5453;50.852;7.102;2023-05-31T08:45:06;31.50;51.20
10802;DHT22;5453;50.852;7.102;2023-05-31T08:47:43;32.10;50.20
10802;DHT22;5453;50.852;7.102;2023-05-31T08:50:17;32.40;48.50
10802;DHT22;5453;50.852;7.102;2023-05-31T08:52:50;33.00;49.10
10802;DHT22;5453;50.852;7.102;2023-05-31T08:55:24;33.60;48.70
10802;DHT22;5453;50.852;7.102;2023-05-31T08:57:58;34.10;47.10
10802;DHT22;5453;50.852;7.102;2023-05-31T09:00:32;34.30;46.30
10802;DHT22;5453;50.852;7.102;2023-05-31T09:03:04;34.00;45.80
10802;DHT22;5453;50.852;7.102;2023-05-31T09:05:37;33.70;45.60
10802;DHT22;5453;50.852;7.102;2023-05-31T09:08:11;33.50;46.10
10802;DHT22;5453;50.852;7.102;2023-05-31T09:10:45;32.80;45.00
10802;DHT22;5453;50.852;7.102;2023-05-31T09:13:18;32.70;45.50
10802;DHT22;5453;50.852;7.102;2023-05-31T09:15:52;32.90;45.20
10802;DHT22;5453;50.852;7.102;2023-05-31T09:18:25;32.60;44.70
10802;DHT22;5453;50.852;7.102;2023-05-31T09:21:07;32.30;45.00
10802;DHT22;5453;50.852;7.102;2023-05-31T09:23:51;31.80;45.30
10802;DHT22;5453;50.852;7.102;2023-05-31T09:26:26;31.50;44.80
10802;DHT22;5453;50.852;7.102;2023-05-31T09:28:59;31.30;45.00
10802;DHT22;5453;50.852;7.102;2023-05-31T09:31:33;30.70;45.30
10802;DHT22;5453;50.852;7.102;2023-05-31T09:34:23;30.10;46.30
10802;DHT22;5453;50.852;7.102;2023-05-31T09:36:57;29.60;46.80
10802;DHT22;5453;50.852;7.102;2023-05-31T09:39:30;29.10;47.50
10802;DHT22;5453;50.852;7.102;2023-05-31T09:42:11;28.70;47.70
10802;DHT22;5453;50.852;7.102;2023-05-31T09:44:48;28.50;49.30
10802;DHT22;5453;50.852;7.102;2023-05-31T09:47:24;28.30;49.00
10802;DHT22;5453;50.852;7.102;2023-05-31T09:49:57;28.10;49.20
10802;DHT22;5453;50.852;7.102;2023-05-31T09:52:29;28.10;49.40
10802;DHT22;5453;50.852;7.102;2023-05-31T09:55:05;28.00;49.90
10802;DHT22;5453;50.852;7.102;2023-05-31T09:57:41;28.00;50.10
10802;DHT22;5453;50.852;7.102;2023-05-31T10:00:16;27.90;49.60
10802;DHT22;5453;50.852;7.102;2023-05-31T10:02:52;27.90;49.80
10802;DHT22;5453;50.852;7.102;2023-05-31T10:05:25;27.80;49.90
10802;DHT22;5453;50.852;7.102;2023-05-31T10:07:57;27.70;50.80
10802;DHT22;5453;50.852;7.102;2023-05-31T10:10:30;27.50;50.20
10802;DHT22;5453;50.852;7.102;2023-05-31T10:13:21;27.50;50.20
10802;DHT22;5453;50.852;7.102;2023-05-31T10:15:56;27.50;49.80
10802;DHT22;5453;50.852;7.102;2023-05-31T10:18:31;27.50;50.10
10802;DHT22;5453;50.852;7.102;2023-05-31T10:21:09;27.60;50.40
10802;DHT22;5453;50.852;7.102;2023-05-31T10:23:44;27.50;49.40
10802;DHT22;5453;50.852;7.102;2023-05-31T10:26:18;27.40;49.90
10802;DHT22;5453;50.852;7.102;2023-05-31T10:28:55;27.40;50.30
10802;DHT22;5453;50.852;7.102;2023-05-31T10:31:31;27.40;49.70
10802;DHT22;5453;50.852;7.102;2023-05-31T10:34:15;27.60;49.70
10802;DHT22;5453;50.852;7.102;2023-05-31T10:36:51;27.60;49.40
10802;DHT22;5453;50.852;7.102;2023-05-31T10:39:28;27.60;49.70
10802;DHT22;5453;50.852;7.102;2023-05-31T10:42:19;27.80;50.70
10802;DHT22;5453;50.852;7.102;2023-05-31T10:44:59;27.80;50.10
10802;DHT22;5453;50.852;7.102;2023-05-31T10:47:37;27.90;50.10
10802;DHT22;5453;50.852;7.102;2023-05-31T10:50:17;27.80;50.60
10802;DHT22;5453;50.852;7.102;2023-05-31T10:52:51;27.60;49.80
10802;DHT22;5453;50.852;7.102;2023-05-31T10:55:24;27.50;49.00
10802;DHT22;5453;50.852;7.102;2023-05-31T10:57:56;27.40;49.50
10802;DHT22;5453;50.852;7.102;2023-05-31T11:00:29;27.40;49.50
10802;DHT22;5453;50.852;7.102;2023-05-31T11:03:01;27.40;49.90
10802;DHT22;5453;50.852;7.102;2023-05-31T11:05:34;27.50;50.10
10802;DHT22;5453;50.852;7.102;2023-05-31T11:08:12;27.60;49.90
10802;DHT22;5453;50.852;7.102;2023-05-31T11:10:45;27.60;48.60
10802;DHT22;5453;50.852;7.102;2023-05-31T11:13:19;27.40;48.90
10802;DHT22;5453;50.852;7.102;2023-05-31T11:15:52;27.30;49.20
10802;DHT22;5453;50.852;7.102;2023-05-31T11:18:26;27.20;49.30
10802;DHT22;5453;50.852;7.102;2023-05-31T11:20:58;27.40;49.50
10802;DHT22;5453;50.852;7.102;2023-05-31T11:23:30;27.50;49.60
10802;DHT22;5453;50.852;7.102;2023-05-31T11:26:15;27.60;49.20
10802;DHT22;5453;50.852;7.102;2023-05-31T11:28:53;27.70;49.70
10802;DHT22;5453;50.852;7.102;2023-05-31T11:31:57;27.70;49.30
10802;DHT22;5453;50.852;7.102;2023-05-31T11:34:31;27.70;48.60
10802;DHT22;5453;50.852;7.102;2023-05-31T11:37:05;27.80;49.20
10802;DHT22;5453;50.852;7.102;2023-05-31T11:39:37;27.90;48.30
10802;DHT22;5453;50.852;7.102;2023-05-31T11:42:15;27.90;48.50
10802;DHT22;5453;50.852;7.102;2023-05-31T11:44:49;27.90;49.10
10802;DHT22;5453;50.852;7.102;2023-05-31T11:47:25;28.00;49.10
10802;DHT22;5453;50.852;7.102;2023-05-31T11:49:58;28.00;48.90
10802;DHT22;5453;50.852;7.102;2023-05-31T11:52:30;28.10;49.10
10802;DHT22;5453;50.852;7.102;2023-05-31T11:55:04;28.20;49.00
10802;DHT22;5453;50.852;7.102;2023-05-31T11:57:41;28.20;48.00
10802;DHT22;5453;50.852;7.102;2023-05-31T12:00:15;28.10;48.60
10802;DHT22;5453;50.852;7.102;2023-05-31T12:02:54;28.10;48.90
10802;DHT22;5453;50.852;7.102;2023-05-31T12:05:27;28.00;49.40
10802;DHT22;5453;50.852;7.102;2023-05-31T12:07:59;28.10;49.40
10802;DHT22;5453;50.852;7.102;2023-05-31T12:10:31;28.20;49.60
10802;DHT22;5453;50.852;7.102;2023-05-31T12:13:03;28.10;50.00
10802;DHT22;5453;50.852;7.102;2023-05-31T12:15:35;28.10;49.80
10802;DHT22;5453;50.852;7.102;2023-05-31T12:18:12;28.00;49.70
10802;DHT22;5453;50.852;7.102;2023-05-31T12:20:44;28.00;49.50
10802;DHT22;5453;50.852;7.102;2023-05-31T12:23:16;28.00;48.90
10802;DHT22;5453;50.852;7.102;2023-05-31T12:25:50;28.00;49.10
10802;DHT22;5453;50.852;7.102;2023-05-31T12:28:22;28.00;48.80
10802;DHT22;5453;50.852;7.102;2023-05-31T12:30:54;28.10;49.70
10802;DHT22;5453;50.852;7.102;2023-05-31T12:33:29;28.10;49.90
10802;DHT22;5453;50.852;7.102;2023-05-31T12:36:05;28.10;50.00
10802;DHT22;5453;50.852;7.102;2023-05-31T12:38:37;28.00;49.50
10802;DHT22;5453;50.852;7.102;2023-05-31T12:41:10;28.00;49.00
10802;DHT22;5453;50.852;7.102;2023-05-31T12:43:42;27.90;48.80
10802;DHT22;5453;50.852;7.102;2023-05-31T12:46:16;27.80;48.50
10802;DHT22;5453;50.852;7.102;2023-05-31T12:48:50;27.80;49.00
10802;DHT22;5453;50.852;7.102;2023-05-31T12:51:22;27.80;49.40
10802;DHT22;5453;50.852;7.102;2023-05-31T12:53:55;27.90;49.70
10802;DHT22;5453;50.852;7.102;2023-05-31T12:56:27;28.00;48.90
10802;DHT22;5453;50.852;7.102;2023-05-31T12:58:59;28.10;49.80
10802;DHT22;5453;50.852;7.102;2023-05-31T13:01:31;28.10;49.80
10802;DHT22;5453;50.852;7.102;2023-05-31T13:04:04;28.20;49.50
10802;DHT22;5453;50.852;7.102;2023-05-31T13:06:37;28.10;49.50
10802;DHT22;5453;50.852;7.102;2023-05-31T13:09:10;28.10;46.90
10802;DHT22;5453;50.852;7.102;2023-05-31T13:11:43;28.00;46.70
10802;DHT22;5453;50.852;7.102;2023-05-31T13:14:16;28.00;48.10
10802;DHT22;5453;50.852;7.102;2023-05-31T13:16:49;27.90;48.10
10802;DHT22;5453;50.852;7.102;2023-05-31T13:19:22;27.90;48.90
10802;DHT22;5453;50.852;7.102;2023-05-31T13:21:54;27.90;48.90
10802;DHT22;5453;50.852;7.102;2023-05-31T13:24:26;28.00;49.80
10802;DHT22;5453;50.852;7.102;2023-05-31T13:26:59;27.90;48.90
10802;DHT22;5453;50.852;7.102;2023-05-31T13:29:31;27.90;48.20
10802;DHT22;5453;50.852;7.102;2023-05-31T13:32:04;27.80;48.40
10802;DHT22;5453;50.852;7.102;2023-05-31T13:34:38;27.80;48.90
10802;DHT22;5453;50.852;7.102;2023-05-31T13:37:10;27.70;48.30
10802;DHT22;5453;50.852;7.102;2023-05-31T13:39:42;27.80;49.00
10802;DHT22;5453;50.852;7.102;2023-05-31T13:42:15;27.80;49.80
10802;DHT22;5453;50.852;7.102;2023-05-31T13:44:47;27.80;49.40
10802;DHT22;5453;50.852;7.102;2023-05-31T13:47:19;27.80;49.70
10802;DHT22;5453;50.852;7.102;2023-05-31T13:49:53;27.80;49.40
10802;DHT22;5453;50.852;7.102;2023-05-31T13:52:25;27.80;48.00
10802;DHT22;5453;50.852;7.102;2023-05-31T13:54:57;27.80;47.90
10802;DHT22;5453;50.852;7.102;2023-05-31T13:57:30;27.80;48.00
10802;DHT22;5453;50.852;7.102;2023-05-31T14:00:03;27.80;48.30
10802;DHT22;5453;50.852;7.102;2023-05-31T14:02:41;27.80;46.60
10802;DHT22;5453;50.852;7.102;2023-05-31T14:05:14;27.70;46.90
10802;DHT22;5453;50.852;7.102;2023-05-31T14:07:47;27.60;46.90
10802;DHT22;5453;50.852;7.102;2023-05-31T14:10:19;27.50;47.70
10802;DHT22;5453;50.852;7.102;2023-05-31T14:12:52;27.40;47.80
10802;DHT22;5453;50.852;7.102;2023-05-31T14:15:24;27.50;48.20
10802;DHT22;5453;50.852;7.102;2023-05-31T14:17:56;27.50;47.80
10802;DHT22;5453;50.852;7.102;2023-05-31T14:20:30;27.50;47.90
10802;DHT22;5453;50.852;7.102;2023-05-31T14:23:02;27.50;48.40
10802;DHT22;5453;50.852;7.102;2023-05-31T14:25:34;27.50;48.50
10802;DHT22;5453;50.852;7.102;2023-05-31T14:28:07;27.50;47.10
10802;DHT22;5453;50.852;7.102;2023-05-31T14:30:39;27.50;48.50
10802;DHT22;5453;50.852;7.102;2023-05-31T14:33:11;27.50;50.60
10802;DHT22;5453;50.852;7.102;2023-05-31T14:35:44;27.60;51.90
10802;DHT22;5453;50.852;7.102;2023-05-31T14:38:16;27.60;49.90
10802;DHT22;5453;50.852;7.102;2023-05-31T14:40:49;27.50;48.70
10802;DHT22;5453;50.852;7.102;2023-05-31T14:43:22;27.50;49.80
10802;DHT22;5453;50.852;7.102;2023-05-31T14:45:54;27.50;51.90
10802;DHT22;5453;50.852;7.102;2023-05-31T14:48:26;27.50;52.20
10802;DHT22;5453;50.852;7.102;2023-05-31T14:50:59;27.50;52.20
10802;DHT22;5453;50.852;7.102;2023-05-31T14:53:31;27.50;52.80
10802;DHT22;5453;50.852;7.102;2023-05-31T14:56:04;27.40;52.60
10802;DHT22;5453;50.852;7.102;2023-05-31T14:58:36;27.30;52.90
10802;DHT22;5453;50.852;7.102;2023-05-31T15:01:08;27.40;54.30
10802;DHT22;5453;50.852;7.102;2023-05-31T15:03:40;27.40;54.80
10802;DHT22;5453;50.852;7.102;2023-05-31T15:06:13;27.50;53.90
10802;DHT22;5453;50.852;7.102;2023-05-31T15:08:46;27.40;51.40
10802;DHT22;5453;50.852;7.102;2023-05-31T15:11:18;27.40;52.20
10802;DHT22;5453;50.852;7.102;2023-05-31T15:13:50;27.40;51.30
10802;DHT22;5453;50.852;7.102;2023-05-31T15:16:22;27.40;50.00
10802;DHT22;5453;50.852;7.102;2023-05-31T15:18:56;27.40;49.60
10802;DHT22;5453;50.852;7.102;2023-05-31T15:21:29;27.30;49.70
10802;DHT22;5453;50.852;7.102;2023-05-31T15:24:02;27.30;50.50
10802;DHT22;5453;50.852;7.102;2023-05-31T15:26:34;27.20;49.50
10802;DHT22;5453;50.852;7.102;2023-05-31T15:29:06;27.20;50.00
10802;DHT22;5453;50.852;7.102;2023-05-31T15:31:38;27.10;51.10
10802;DHT22;5453;50.852;7.102;2023-05-31T15:34:10;27.10;52.50
10802;DHT22;5453;50.852;7.102;2023-05-31T15:36:43;27.10;53.60
10802;DHT22;5453;50.852;7.102;2023-05-31T15:39:15;27.10;54.10
10802;DHT22;5453;50.852;7.102;2023-05-31T15:41:48;27.10;54.40
10802;DHT22;5453;50.852;7.102;2023-05-31T15:44:20;27.10;52.70
10802;DHT22;5453;50.852;7.102;2023-05-31T15:46:52;27.00;50.70
10802;DHT22;5453;50.852;7.102;2023-05-31T15:49:24;27.00;51.20
10802;DHT22;5453;50.852;7.102;2023-05-31T15:51:57;27.00;52.10
10802;DHT22;5453;50.852;7.102;2023-05-31T15:54:29;27.00;53.00
10802;DHT22;5453;50.852;7.102;2023-05-31T15:57:01;26.90;53.30
10802;DHT22;5453;50.852;7.102;2023-05-31T15:59:33;26.80;53.50
10802;DHT22;5453;50.852;7.102;2023-05-31T16:02:06;26.80;53.90
10802;DHT22;5453;50.852;7.102;2023-05-31T16:04:39;26.80;53.80
10802;DHT22;5453;50.852;7.102;2023-05-31T16:07:13;26.70;54.20
10802;DHT22;5453;50.852;7.102;2023-05-31T16:09:45;26.60;54.10
10802;DHT22;5453;50.852;7.102;2023-05-31T16:12:17;26.60;53.60
10802;DHT22;5453;50.852;7.102;2023-05-31T16:14:49;26.40;53.90
10802;DHT22;5453;50.852;7.102;2023-05-31T16:17:21;26.30;54.00
10802;DHT22;5453;50.852;7.102;2023-05-31T16:19:55;26.30;54.50
10802;DHT22;5453;50.852;7.102;2023-05-31T16:22:28;26.30;55.10
10802;DHT22;5453;50.852;7.102;2023-05-31T16:25:01;26.20;55.00
10802;DHT22;5453;50.852;7.102;2023-05-31T16:27:33;26.20;54.60
10802;DHT22;5453;50.852;7.102;2023-05-31T16:30:06;26.20;54.70